Time,TemperatureF,DewpointF,PressureIn,WindDirection,WindDirectionDegrees,WindSpeedMPH,WindSpeedGustMPH,Humidity,HourlyPrecipIn,Conditions,Clouds,dailyrainin,SoftwareType,DateUTC
2013-03-10 07:27:00,38.1,36.5,29.82,SSE,148,8.0,10.0,94,0.00,,,0.56,Wunderground v.1.15,2013-03-10 12:27:00,
2013-03-10 07:28:00,38.0,36.4,29.82,SE,141,8.0,10.0,94,0.00,,,0.56,Wunderground v.1.15,2013-03-10 12:28:00,
2013-03-10 07:30:00,38.0,36.4,29.82,SE,136,8.0,11.0,94,0.00,,,0.56,Wunderground v.1.15,2013-03-10 12:30:00,
2013-03-10 07:33:00,38.5,36.9,29.82,SE,143,9.0,11.0,94,0.00,,,0.57,Wunderground v.1.15,2013-03-10 12:33:00,
2013-03-10 07:39:00,38.8,36.9,29.81,SSE,151,10.0,10.0,93,0.09,,,0.58,Wunderground v.1.15,2013-03-10 12:39:00,
2013-03-10 07:45:00,38.5,36.7,29.81,SSE,149,9.0,10.0,93,0.08,,,0.58,Wunderground v.1.15,2013-03-10 12:45:00,
2013-03-10 07:51:00,38.6,37.0,29.81,SE,139,10.0,10.0,94,0.08,,,0.59,Wunderground v.1.15,2013-03-10 12:51:00,
2013-03-10 07:57:00,38.8,37.2,29.80,SSE,150,10.0,10.0,94,0.05,,,0.59,Wunderground v.1.15,2013-03-10 12:57:00,
2013-03-10 08:02:00,38.6,37.0,29.80,SSE,147,10.0,12.0,94,0.04,,,0.59,Wunderground v.1.15,2013-03-10 13:02:00,
2013-03-10 08:08:00,38.5,36.9,29.80,SE,145,11.0,12.0,94,0.00,,,0.59,Wunderground v.1.15,2013-03-10 13:08:00,
2013-03-10 08:13:00,38.5,36.9,29.81,SE,146,9.0,10.0,94,0.00,,,0.59,Wunderground v.1.15,2013-03-10 13:13:00,
2013-03-10 08:18:00,38.6,37.0,29.81,SE,146,9.0,10.0,94,0.00,,,0.60,Wunderground v.1.15,2013-03-10 13:18:00,
2013-03-10 08:23:00,38.8,37.2,29.80,SE,142,8.0,9.0,94,0.00,,,0.60,Wunderground v.1.15,2013-03-10 13:23:00,
2013-03-10 08:29:00,39.1,37.8,29.81,SSE,157,8.0,9.0,95,0.00,,,0.60,Wunderground v.1.15,2013-03-10 13:29:00,
2013-03-10 08:34:00,39.7,38.4,29.81,SSE,165,8.0,10.0,95,0.00,,,0.61,Wunderground v.1.15,2013-03-10 13:34:00,
2013-03-10 08:39:00,40.5,39.2,29.82,SSE,152,10.0,13.0,95,0.00,,,0.61,Wunderground v.1.15,2013-03-10 13:39:00,
2013-03-10 08:44:00,40.7,38.8,29.78,SE,128,11.0,12.0,93,0.00,,,0.61,Wunderground v.1.15,2013-03-10 13:44:00,
2013-03-10 08:49:00,40.7,38.6,29.81,SSE,158,11.0,12.0,92,0.04,,,0.62,Wunderground v.1.15,2013-03-10 13:49:00,
2013-03-10 08:55:00,41.4,39.3,29.80,SE,136,10.0,13.0,92,0.04,,,0.62,Wunderground v.1.15,2013-03-10 13:55:00,
2013-03-10 09:00:00,41.6,38.9,29.81,SSE,165,10.0,10.0,90,0.04,,,0.62,Wunderground v.1.15,2013-03-10 14:00:00,
2013-03-10 09:05:00,42.0,39.3,29.82,SSE,163,8.0,10.0,90,0.00,,,0.62,Wunderground v.1.15,2013-03-10 14:05:00,
2013-03-10 09:11:00,42.4,39.4,29.82,SSE,167,8.0,11.0,89,0.00,,,0.62,Wunderground v.1.15,2013-03-10 14:11:00,
2013-03-10 09:16:00,42.4,39.4,29.82,SSE,158,9.0,11.0,89,0.00,,,0.62,Wunderground v.1.15,2013-03-10 14:16:00,
2013-03-10 09:21:00,42.6,39.6,29.81,SSE,157,11.0,12.0,89,0.00,,,0.62,Wunderground v.1.15,2013-03-10 14:21:00,
2013-03-10 09:27:00,42.6,39.3,29.81,SSE,151,11.0,12.0,88,0.00,,,0.62,Wunderground v.1.15,2013-03-10 14:27:00,
2013-03-10 09:32:00,42.7,39.4,29.81,SSE,161,10.0,11.0,88,0.00,,,0.62,Wunderground v.1.15,2013-03-10 14:32:00,
2013-03-10 09:37:00,43.0,39.7,29.81,SSE,157,9.0,11.0,88,0.00,,,0.62,Wunderground v.1.15,2013-03-10 14:37:00,
2013-03-10 09:42:00,43.0,39.7,29.81,SE,134,10.0,12.0,88,0.00,,,0.62,Wunderground v.1.15,2013-03-10 14:42:00,
2013-03-10 09:48:00,42.7,39.4,29.81,SE,144,10.0,12.0,88,0.00,,,0.62,Wunderground v.1.15,2013-03-10 14:48:00,
2013-03-10 09:53:00,42.9,39.9,29.81,SSE,153,9.0,10.0,89,0.00,,,0.63,Wunderground v.1.15,2013-03-10 14:53:00,
2013-03-10 09:58:00,43.1,40.1,29.80,SSE,151,9.0,10.0,89,0.00,,,0.63,Wunderground v.1.15,2013-03-10 14:58:00,
2013-03-10 10:04:00,43.5,40.5,29.80,SSE,151,8.0,13.0,89,0.00,,,0.63,Wunderground v.1.15,2013-03-10 15:04:00,
2013-03-10 10:09:00,43.8,40.2,29.80,South,187,10.0,14.0,87,0.00,,,0.63,Wunderground v.1.15,2013-03-10 15:09:00,
2013-03-10 10:14:00,43.6,40.0,29.80,SSE,161,13.0,15.0,87,0.00,,,0.64,Wunderground v.1.15,2013-03-10 15:14:00,
2013-03-10 10:20:00,43.2,39.9,29.81,South,174,13.0,13.0,88,0.00,,,0.64,Wunderground v.1.15,2013-03-10 15:20:00,
2013-03-10 10:25:00,43.1,40.1,29.80,South,169,11.0,13.0,89,0.00,,,0.64,Wunderground v.1.15,2013-03-10 15:25:00,
2013-03-10 10:30:00,43.3,40.0,29.80,SSE,165,10.0,10.0,88,0.00,,,0.64,Wunderground v.1.15,2013-03-10 15:30:00,
2013-03-10 10:35:00,43.4,40.1,29.80,South,170,10.0,11.0,88,0.00,,,0.64,Wunderground v.1.15,2013-03-10 15:35:00,
2013-03-10 10:41:00,43.5,40.2,29.80,SSE,150,9.0,9.0,88,0.00,,,0.64,Wunderground v.1.15,2013-03-10 15:41:00,
2013-03-10 10:47:00,43.4,40.1,29.79,SSE,150,9.0,11.0,88,0.00,,,0.64,Wunderground v.1.15,2013-03-10 15:47:00,
2013-03-10 10:52:00,43.4,40.1,29.79,SSE,148,9.0,11.0,88,0.00,,,0.64,Wunderground v.1.15,2013-03-10 15:52:00,
2013-03-10 10:57:00,43.8,40.5,29.79,SSE,157,10.0,11.0,88,0.00,,,0.64,Wunderground v.1.15,2013-03-10 15:57:00,
2013-03-10 11:04:00,43.9,40.6,29.79,SSE,165,11.0,12.0,88,0.00,,,0.64,Wunderground v.1.15,2013-03-10 16:04:00,
2013-03-10 11:09:00,44.2,40.6,29.79,SSE,155,10.0,14.0,87,0.00,,,0.64,Wunderground v.1.15,2013-03-10 16:09:00,
2013-03-10 11:15:00,44.4,40.8,29.79,SSE,156,10.0,12.0,87,0.00,,,0.64,Wunderground v.1.15,2013-03-10 16:15:00,
2013-03-10 11:20:00,44.9,41.3,29.78,SSE,150,10.0,10.0,87,0.00,,,0.64,Wunderground v.1.15,2013-03-10 16:20:00,
2013-03-10 11:25:00,45.1,41.5,29.77,SE,146,10.0,13.0,87,0.00,,,0.64,Wunderground v.1.15,2013-03-10 16:25:00,
2013-03-10 11:31:00,45.4,41.8,29.77,SSE,151,10.0,10.0,87,0.00,,,0.64,Wunderground v.1.15,2013-03-10 16:31:00,
2013-03-10 11:36:00,45.2,41.6,29.76,SE,139,9.0,10.0,87,0.00,,,0.64,Wunderground v.1.15,2013-03-10 16:36:00,
2013-03-10 11:42:00,45.3,42.2,29.77,SE,146,9.0,11.0,89,0.00,,,0.64,Wunderground v.1.15,2013-03-10 16:42:00,
2013-03-10 11:47:00,46.0,42.6,29.77,SSE,154,10.0,11.0,88,0.00,,,0.64,Wunderground v.1.15,2013-03-10 16:47:00,
2013-03-10 11:53:00,46.4,42.7,29.77,SSE,153,10.0,12.0,87,0.00,,,0.64,Wunderground v.1.15,2013-03-10 16:53:00,
2013-03-10 11:58:00,46.5,42.8,29.79,SSE,168,10.0,12.0,87,0.00,,,0.64,Wunderground v.1.15,2013-03-10 16:58:00,
2013-03-10 12:04:00,46.5,42.5,29.78,South,172,9.0,10.0,86,0.00,,,0.64,Wunderground v.1.15,2013-03-10 17:04:00,
2013-03-10 12:09:00,46.5,42.5,29.79,South,178,9.0,11.0,86,0.00,,,0.64,Wunderground v.1.15,2013-03-10 17:09:00,
2013-03-10 12:15:00,46.8,42.8,29.79,SSE,168,10.0,12.0,86,0.00,,,0.64,Wunderground v.1.15,2013-03-10 17:15:00,
2013-03-10 12:20:00,47.0,42.7,29.79,SSE,161,11.0,11.0,85,0.00,,,0.64,Wunderground v.1.15,2013-03-10 17:20:00,
2013-03-10 12:26:00,46.8,42.8,29.78,South,169,10.0,12.0,86,0.00,,,0.64,Wunderground v.1.15,2013-03-10 17:26:00,
2013-03-10 12:31:00,46.9,42.9,29.78,South,178,10.0,13.0,86,0.00,,,0.64,Wunderground v.1.15,2013-03-10 17:31:00,
2013-03-10 12:36:00,47.2,43.2,29.78,SSE,164,10.0,13.0,86,0.00,,,0.64,Wunderground v.1.15,2013-03-10 17:36:00,
2013-03-10 12:42:00,47.4,43.4,29.79,SSE,160,10.0,10.0,86,0.00,,,0.64,Wunderground v.1.15,2013-03-10 17:42:00,
2013-03-10 12:47:00,47.3,43.0,29.78,SSE,157,10.0,11.0,85,0.00,,,0.64,Wunderground v.1.15,2013-03-10 17:47:00,
2013-03-10 12:52:00,47.3,43.3,29.77,SSE,163,10.0,11.0,86,0.00,,,0.64,Wunderground v.1.15,2013-03-10 17:52:00,
2013-03-10 12:58:00,47.5,43.8,29.77,SSE,156,9.0,12.0,87,0.00,,,0.64,Wunderground v.1.15,2013-03-10 17:58:00,
2013-03-10 13:03:00,47.7,43.4,29.77,SSE,167,8.0,9.0,85,0.00,,,0.64,Wunderground v.1.15,2013-03-10 18:03:00,
2013-03-10 13:09:00,47.3,43.3,29.76,SSE,162,7.0,9.0,86,0.00,,,0.64,Wunderground v.1.15,2013-03-10 18:09:00,
2013-03-10 13:15:00,47.0,43.3,29.75,SE,138,6.0,7.0,87,0.00,,,0.64,Wunderground v.1.15,2013-03-10 18:15:00,
2013-03-10 13:20:00,46.9,43.5,29.75,SE,139,5.0,5.0,88,0.00,,,0.64,Wunderground v.1.15,2013-03-10 18:20:00,
2013-03-10 13:25:00,47.0,43.9,29.74,SE,141,5.0,7.0,89,0.00,,,0.64,Wunderground v.1.15,2013-03-10 18:25:00,
2013-03-10 13:30:00,47.7,44.9,29.74,SE,142,5.0,6.0,90,0.00,,,0.64,Wunderground v.1.15,2013-03-10 18:30:00,
2013-03-10 13:36:00,48.2,45.4,29.74,SE,141,5.0,6.0,90,0.00,,,0.64,Wunderground v.1.15,2013-03-10 18:36:00,
2013-03-10 13:41:00,48.5,45.7,29.73,SE,138,5.0,5.0,90,0.00,,,0.64,Wunderground v.1.15,2013-03-10 18:41:00,
2013-03-10 13:47:00,48.7,45.9,29.73,SE,124,4.0,5.0,90,0.00,,,0.64,Wunderground v.1.15,2013-03-10 18:47:00,
2013-03-10 13:52:00,48.6,45.8,29.73,SE,130,5.0,6.0,90,0.00,,,0.64,Wunderground v.1.15,2013-03-10 18:52:00,
2013-03-10 13:58:00,48.5,45.7,29.72,SE,130,6.0,7.0,90,0.00,,,0.64,Wunderground v.1.15,2013-03-10 18:58:00,
2013-03-10 14:04:00,48.5,46.0,29.71,SE,134,6.0,7.0,91,0.00,,,0.64,Wunderground v.1.15,2013-03-10 19:04:00,
2013-03-10 14:09:00,48.6,46.1,29.70,SE,134,5.0,7.0,91,0.00,,,0.64,Wunderground v.1.15,2013-03-10 19:09:00,
2013-03-10 14:15:00,48.8,46.6,29.70,SSE,150,5.0,5.0,92,0.00,,,0.64,Wunderground v.1.15,2013-03-10 19:15:00,
2013-03-10 14:20:00,49.0,46.8,29.69,SE,138,5.0,5.0,92,0.00,,,0.64,Wunderground v.1.15,2013-03-10 19:20:00,
2013-03-10 14:25:00,49.5,47.3,29.68,SE,137,5.0,6.0,92,0.00,,,0.64,Wunderground v.1.15,2013-03-10 19:25:00,
2013-03-10 14:31:00,50.2,47.4,29.67,SSE,158,5.0,6.0,90,0.00,,,0.64,Wunderground v.1.15,2013-03-10 19:31:00,
2013-03-10 14:36:00,50.1,47.0,29.69,SSE,151,6.0,6.0,89,0.00,,,0.64,Wunderground v.1.15,2013-03-10 19:36:00,
2013-03-10 14:42:00,50.2,47.1,29.69,SSE,153,6.0,6.0,89,0.00,,,0.64,Wunderground v.1.15,2013-03-10 19:42:00,
2013-03-10 14:48:00,50.1,46.7,29.69,SSE,150,6.0,6.0,88,0.00,,,0.64,Wunderground v.1.15,2013-03-10 19:48:00,
2013-03-10 14:53:00,49.9,46.5,29.69,SE,145,6.0,7.0,88,0.00,,,0.64,Wunderground v.1.15,2013-03-10 19:53:00,
2013-03-10 14:59:00,49.1,45.7,29.69,SE,143,6.0,7.0,88,0.00,,,0.65,Wunderground v.1.15,2013-03-10 19:59:00,
2013-03-10 15:05:00,48.4,45.6,29.70,SE,144,6.0,7.0,90,0.09,,,0.66,Wunderground v.1.15,2013-03-10 20:05:00,
2013-03-10 15:11:00,48.1,45.6,29.70,SE,143,6.0,6.0,91,0.07,,,0.67,Wunderground v.1.15,2013-03-10 20:11:00,
2013-03-10 15:16:00,47.9,45.4,29.69,SE,138,6.0,6.0,91,0.16,,,0.68,Wunderground v.1.15,2013-03-10 20:16:00,
2013-03-10 15:22:00,47.8,45.6,29.69,SE,138,7.0,7.0,92,0.09,,,0.69,Wunderground v.1.15,2013-03-10 20:22:00,
2013-03-10 15:28:00,47.8,45.6,29.68,SE,142,7.0,7.0,92,0.08,,,0.69,Wunderground v.1.15,2013-03-10 20:28:00,
2013-03-10 15:34:00,48.4,46.5,29.69,South,171,8.0,10.0,93,0.07,,,0.70,Wunderground v.1.15,2013-03-10 20:34:00,
2013-03-10 15:39:00,49.7,47.2,29.69,SSE,164,10.0,14.0,91,0.10,,,0.71,Wunderground v.1.15,2013-03-10 20:39:00,
2013-03-10 15:45:00,50.3,47.5,29.69,SSE,153,11.0,13.0,90,0.25,,,0.73,Wunderground v.1.15,2013-03-10 20:45:00,
2013-03-10 15:50:00,50.3,47.2,29.68,SE,143,11.0,11.0,89,0.16,,,0.74,Wunderground v.1.15,2013-03-10 20:50:00,
2013-03-10 15:56:00,49.4,46.3,29.67,SE,138,10.0,11.0,89,0.08,,,0.75,Wunderground v.1.15,2013-03-10 20:56:00,
2013-03-10 16:01:00,48.9,46.1,29.67,SE,138,8.0,8.0,90,0.08,,,0.75,Wunderground v.1.15,2013-03-10 21:01:00,
2013-03-10 16:07:00,48.4,45.9,29.67,SE,127,6.0,8.0,91,0.08,,,0.76,Wunderground v.1.15,2013-03-10 21:07:00,
2013-03-10 16:13:00,47.9,45.4,29.66,SE,124,5.0,6.0,91,0.05,,,0.76,Wunderground v.1.15,2013-03-10 21:13:00,
2013-03-10 16:19:00,47.7,45.5,29.66,SE,130,5.0,7.0,92,0.00,,,0.76,Wunderground v.1.15,2013-03-10 21:19:00,
2013-03-10 16:25:00,47.6,45.4,29.66,SE,128,5.0,6.0,92,0.00,,,0.77,Wunderground v.1.15,2013-03-10 21:25:00,
2013-03-10 16:31:00,47.5,45.3,29.65,SE,130,5.0,5.0,92,0.00,,,0.77,Wunderground v.1.15,2013-03-10 21:31:00,
2013-03-10 16:36:00,47.6,45.4,29.65,SE,140,5.0,5.0,92,0.00,,,0.77,Wunderground v.1.15,2013-03-10 21:36:00,
2013-03-10 16:41:00,47.9,45.4,29.65,SE,129,6.0,8.0,91,0.00,,,0.77,Wunderground v.1.15,2013-03-10 21:41:00,
2013-03-10 16:47:00,48.2,45.1,29.65,SE,134,8.0,9.0,89,0.00,,,0.77,Wunderground v.1.15,2013-03-10 21:47:00,
2013-03-10 16:53:00,48.1,44.7,29.65,SE,143,7.0,8.0,88,0.00,,,0.77,Wunderground v.1.15,2013-03-10 21:53:00,
2013-03-10 16:58:00,47.7,44.3,29.65,SE,146,6.0,8.0,88,0.00,,,0.77,Wunderground v.1.15,2013-03-10 21:58:00,
2013-03-10 17:04:00,47.0,43.6,29.65,SE,144,6.0,7.0,88,0.00,,,0.77,Wunderground v.1.15,2013-03-10 22:04:00,
2013-03-10 17:10:00,46.7,43.6,29.65,SE,141,6.0,7.0,89,0.00,,,0.77,Wunderground v.1.15,2013-03-10 22:10:00,
2013-03-10 17:16:00,46.5,43.4,29.66,SSE,152,7.0,8.0,89,0.00,,,0.78,Wunderground v.1.15,2013-03-10 22:16:00,
2013-03-10 17:22:00,46.8,44.0,29.65,SE,146,7.0,7.0,90,0.00,,,0.78,Wunderground v.1.15,2013-03-10 22:22:00,
2013-03-10 17:27:00,47.2,44.4,29.66,SSE,149,7.0,9.0,90,0.00,,,0.78,Wunderground v.1.15,2013-03-10 22:27:00,